Time;durP1;ratioP1;P1;durP2;ratioP2;P2;SDS_P1;SDS_P2;PMS_P1;PMS_P2;Temp;Humidity;BMP_temperature;BMP_pressure;BME280_temperature;BME280_humidity;BME280_pressure;Samples;Min_cycle;Max_cycle;Signal;HPM_P1;HPM_P2
2022/01/14 00:00:35;;;;;;;65.95;12.68;;;;;;;3.49;90.84;103766.00;4996805;28;20475;-68
2022/01/14 00:03:01;;;;;;;84.32;12.85;;;;;;;3.46;91.55;103771.84;4996944;28;20030;-72
2022/01/14 00:05:26;;;;;;;63.38;13.32;;;;;;;3.44;91.08;103775.13;4996814;28;20061;-71
2022/01/14 00:07:51;;;;;;;44.47;12.00;;;;;;;3.46;91.69;103777.09;4996701;28;20030;-72
2022/01/14 00:10:17;;;;;;;47.97;12.27;;;;;;;3.42;91.35;103774.06;4996749;28;20030;-72
2022/01/14 00:12:51;;;;;;;54.53;12.18;;;;;;;3.42;90.95;103772.38;4996835;28;20058;-71
2022/01/14 00:15:27;;;;;;;51.90;11.68;;;;;;;3.42;91.64;103785.44;4996734;28;20030;-71
2022/01/14 00:17:53;;;;;;;37.65;11.23;;;;;;;3.44;90.82;103772.53;4996726;28;20032;-73
2022/01/14 00:20:20;;;;;;;34.10;10.93;;;;;;;3.43;91.17;103769.00;4996465;28;20031;-70
2022/01/14 00:22:46;;;;;;;39.33;11.50;;;;;;;3.44;91.30;103764.69;4996549;28;20053;-70
2022/01/14 00:33:09;;;;;;;52.90;11.85;;;;;;;3.33;91.26;103753.28;4996644;28;20402;-72
2022/01/14 00:35:40;;;;;;;65.85;11.15;;;;;;;3.24;91.78;103753.41;4996260;28;20101;-72
2022/01/14 00:38:06;;;;;;;53.90;10.63;;;;;;;3.21;91.06;103750.53;4996374;28;20038;-71
2022/01/14 00:40:32;;;;;;;64.03;10.85;;;;;;;3.09;91.24;103752.06;4996095;28;20038;-72
2022/01/14 00:42:58;;;;;;;28.40;10.55;;;;;;;3.04;91.84;103742.94;4996281;28;20027;-71
2022/01/14 00:45:23;;;;;;;41.25;11.07;;;;;;;3.04;92.13;103742.94;4996098;28;20375;-72
2022/01/14 00:47:48;;;;;;;68.45;11.10;;;;;;;3.00;91.57;103739.13;4996187;28;20467;-72
2022/01/14 00:50:15;;;;;;;35.92;9.63;;;;;;;2.98;92.19;103734.53;4995840;28;20126;-72
2022/01/14 00:52:42;;;;;;;24.75;10.23;;;;;;;3.00;92.33;103723.44;4996042;28;20037;-72
2022/01/14 00:55:12;;;;;;;42.08;9.95;;;;;;;3.01;92.01;103720.06;4995821;28;20376;-72
2022/01/14 01:00:30;;;;;;;32.53;11.13;;;;;;;2.97;91.58;103714.44;4935694;29;20046;-70
2022/01/14 01:02:55;;;;;;;35.13;10.05;;;;;;;2.99;91.74;103700.69;4935815;29;20047;-70
2022/01/14 01:05:21;;;;;;;30.90;11.23;;;;;;;3.03;91.76;103700.97;4936102;29;20075;-72
2022/01/14 01:07:57;;;;;;;44.28;10.40;;;;;;;3.04;92.16;103697.56;4935739;29;20032;-72
2022/01/14 01:10:23;;;;;;;39.40;11.23;;;;;;;3.01;91.43;103701.75;4935553;29;20138;-72
2022/01/14 01:15:16;;;;;;;35.60;10.75;;;;;;;2.95;92.02;103698.59;4935730;29;20409;-70
2022/01/14 01:17:43;;;;;;;72.38;11.25;;;;;;;2.92;92.05;103693.13;4935514;29;20477;-72
2022/01/14 01:20:17;;;;;;;49.47;10.50;;;;;;;2.92;91.68;103697.44;4935512;29;20047;-72
2022/01/14 01:22:45;;;;;;;49.10;10.52;;;;;;;2.96;91.88;103692.63;4935624;29;20421;-70
2022/01/14 01:25:13;;;;;;;37.42;10.40;;;;;;;3.03;91.69;103700.97;4935437;29;20067;-71
2022/01/14 01:27:40;;;;;;;48.55;10.18;;;;;;;3.01;91.15;103693.94;4935615;29;20493;-72
2022/01/14 01:30:15;;;;;;;31.77;10.43;;;;;;;2.96;91.65;103696.94;4935397;28;20071;-71
2022/01/14 01:32:45;;;;;;;26.42;9.95;;;;;;;2.95;91.54;103698.59;4935338;29;20040;-71
2022/01/14 01:35:10;;;;;;;43.00;9.93;;;;;;;2.95;91.15;103692.47;4935281;29;20057;-71
2022/01/14 01:37:35;;;;;;;21.45;9.15;;;;;;;2.95;91.42;103684.63;4968212;28;20478;-71
2022/01/14 01:40:01;;;;;;;23.20;9.27;;;;;;;2.94;91.91;103686.31;4994925;28;20041;-70
2022/01/14 01:42:29;;;;;;;36.65;9.25;;;;;;;2.94;91.88;103686.31;4995067;28;20109;-72
2022/01/14 01:44:55;;;;;;;40.53;9.35;;;;;;;2.95;91.92;103687.25;4995100;28;20026;-71
2022/01/14 01:47:22;;;;;;;28.73;9.68;;;;;;;3.02;91.73;103694.84;4995033;28;20035;-72
2022/01/14 01:49:48;;;;;;;56.88;9.75;;;;;;;3.04;90.92;103689.75;4994861;28;20058;-70
2022/01/14 01:52:13;;;;;;;44.25;9.02;;;;;;;2.98;91.58;103693.66;4995103;28;20065;-73
2022/01/14 01:54:38;;;;;;;52.40;9.48;;;;;;;2.94;90.63;103695.88;4994924;28;20460;-71
2022/01/14 01:57:04;;;;;;;29.75;9.07;;;;;;;2.91;91.51;103678.25;4994672;28;20478;-72
2022/01/14 01:59:30;;;;;;;36.42;9.05;;;;;;;2.93;91.61;103694.03;4994563;28;20030;-72
2022/01/14 02:02:00;;;;;;;16.88;8.32;;;;;;;2.95;91.61;103697.69;4994874;28;20574;-72
2022/01/14 02:04:27;;;;;;;41.50;9.18;;;;;;;2.99;91.01;103690.25;4994783;28;20380;-71
2022/01/14 02:06:55;;;;;;;51.47;9.30;;;;;;;3.04;91.06;103698.53;4994649;28;20022;-72
2022/01/14 02:09:21;;;;;;;54.00;9.23;;;;;;;2.98;91.01;103693.66;4994631;28;20391;-73
2022/01/14 02:11:47;;;;;;;49.50;8.90;;;;;;;2.92;90.66;103690.53;4994612;28;20034;-71
2022/01/14 02:22:55;;;;;;;21.85;8.70;;;;;;;2.91;90.44;103682.53;4934549;29;20058;-75
2022/01/14 02:25:30;;;;;;;46.10;9.23;;;;;;;2.89;90.75;103671.06;4934129;29;20132;-73
2022/01/14 02:27:56;;;;;;;54.47;9.40;;;;;;;2.78;91.14;103672.72;4934424;29;20043;-71
2022/01/14 02:30:23;;;;;;;64.88;9.23;;;;;;;2.68;91.33;103667.47;4934307;28;20040;-72
2022/01/14 02:32:48;;;;;;;39.45;8.77;;;;;;;2.66;91.43;103659.53;4934311;29;20127;-71
2022/01/14 02:35:14;;;;;;;58.22;8.40;;;;;;;2.65;91.38;103669.81;4934140;29;20482;-71
2022/01/14 02:37:40;;;;;;;40.38;8.25;;;;;;;2.64;91.35;103668.91;4934079;29;20209;-72
2022/01/14 02:40:06;;;;;;;51.17;8.18;;;;;;;2.64;91.11;103665.38;4918053;29;20140;-70
2022/01/14 02:42:31;;;;;;;41.50;8.43;;;;;;;2.67;91.36;103665.66;4918207;29;20440;-71
2022/01/14 02:45:02;;;;;;;29.35;8.77;;;;;;;2.68;91.52;103662.25;4918260;29;20044;-72
2022/01/14 02:47:28;;;;;;;34.50;8.73;;;;;;;2.72;91.13;103666.97;4934057;29;20031;-72
2022/01/14 02:49:54;;;;;;;49.63;8.20;;;;;;;2.74;91.41;103660.16;4933855;29;20123;-71
2022/01/14 02:52:28;;;;;;;30.20;8.18;;;;;;;2.76;91.01;103659.53;4933930;29;20128;-71
2022/01/14 02:55:14;;;;;;;29.13;8.48;;;;;;;2.80;90.85;103658.09;4933842;29;20039;-70
2022/01/14 02:57:42;;;;;;;39.45;8.38;;;;;;;2.79;91.10;103652.75;4968676;28;20503;-71
2022/01/14 03:00:08;;;;;;;67.63;9.05;;;;;;;2.71;91.03;103655.59;4974322;28;20027;-70
2022/01/14 03:02:35;;;;;;;23.25;8.70;;;;;;;2.72;91.48;103654.81;4974178;28;20412;-72
2022/01/14 03:05:01;;;;;;;26.40;8.90;;;;;;;2.75;91.56;103646.34;4974234;28;20101;-72
2022/01/14 03:07:27;;;;;;;39.70;8.90;;;;;;;2.80;91.34;103649.38;4974218;28;20023;-72
2022/01/14 03:09:53;;;;;;;39.95;9.10;;;;;;;2.80;90.73;103650.28;4974264;28;20034;-76
2022/01/14 03:12:18;;;;;;;36.67;8.55;;;;;;;2.76;90.88;103653.41;4974259;28;20037;-72
2022/01/14 03:14:45;;;;;;;28.58;8.40;;;;;;;2.75;91.07;103659.41;4974147;28;20530;-71
2022/01/14 03:17:10;;;;;;;37.58;8.85;;;;;;;2.70;90.82;103658.09;4974127;28;20125;-71
2022/01/14 03:19:36;;;;;;;31.98;8.70;;;;;;;2.76;91.05;103656.00;4974122;28;20106;-72
2022/01/14 03:27:11;;;;;;;59.40;8.55;;;;;;;2.93;90.57;103654.88;4974138;28;20039;-70
2022/01/14 03:29:36;;;;;;;42.47;8.27;;;;;;;2.94;89.96;103659.31;4958507;28;20054;-71
2022/01/14 03:32:03;;;;;;;32.55;8.38;;;;;;;2.85;89.68;103650.69;4977838;28;20467;-70
2022/01/14 03:34:29;;;;;;;36.38;8.68;;;;;;;2.85;90.49;103653.28;4978164;28;20085;-71
2022/01/14 03:36:54;;;;;;;26.73;7.57;;;;;;;2.91;90.29;103645.97;4977983;28;20031;-71
2022/01/14 03:39:20;;;;;;;16.92;8.18;;;;;;;2.94;89.92;103655.00;4977941;28;20027;-72
2022/01/14 03:41:46;;;;;;;30.13;8.10;;;;;;;2.96;90.16;103650.84;4977714;28;20038;-71
2022/01/14 03:44:12;;;;;;;39.45;8.15;;;;;;;2.96;89.57;103650.84;4977827;28;20435;-71
2022/01/14 03:46:38;;;;;;;27.58;7.95;;;;;;;3.00;89.70;103652.03;4977590;28;20034;-72
2022/01/14 03:49:03;;;;;;;27.65;7.88;;;;;;;3.00;89.60;103652.94;4978012;28;20111;-72
2022/01/14 03:51:29;;;;;;;42.50;8.30;;;;;;;3.00;89.29;103649.41;4993814;28;20043;-71
2022/01/14 03:53:55;;;;;;;24.83;7.80;;;;;;;2.96;89.61;103640.38;4997253;28;20101;-76
2022/01/14 03:56:22;;;;;;;38.78;8.65;;;;;;;2.98;89.79;103646.63;4979657;28;20110;-70
2022/01/14 03:58:48;;;;;;;35.08;7.78;;;;;;;3.03;89.41;103640.91;4996932;28;20478;-72
2022/01/14 04:01:13;;;;;;;34.72;7.97;;;;;;;3.04;89.59;103638.44;4996918;28;20026;-70
2022/01/14 04:03:40;;;;;;;42.35;7.40;;;;;;;3.01;88.70;103641.69;4996773;28;20042;-71
2022/01/14 04:06:06;;;;;;;41.55;7.93;;;;;;;3.00;89.06;103642.47;4997011;28;20026;-72
2022/01/14 04:08:31;;;;;;;74.50;8.15;;;;;;;2.99;88.80;103640.63;4996856;28;20080;-72
2022/01/14 04:11:00;;;;;;;63.53;8.32;;;;;;;2.96;88.54;103629.94;4996646;28;20026;-70
2022/01/14 04:13:38;;;;;;;50.50;8.60;;;;;;;2.95;89.20;103638.53;4996855;28;20026;-71
2022/01/14 04:16:05;;;;;;;77.05;8.25;;;;;;;2.92;88.42;103647.81;4996584;28;20030;-71
2022/01/14 04:18:31;;;;;;;32.53;7.40;;;;;;;2.87;89.22;103643.88;4996616;28;20030;-72
2022/01/14 04:20:56;;;;;;;47.70;7.45;;;;;;;2.86;89.41;103639.44;4979279;28;20077;-72
2022/01/14 04:23:25;;;;;;;38.67;7.68;;;;;;;2.81;89.21;103633.81;4996641;28;20110;-72
2022/01/14 04:25:53;;;;;;;33.72;7.60;;;;;;;2.82;89.66;103632.13;4996483;28;20031;-71
2022/01/14 04:28:20;;;;;;;57.35;8.30;;;;;;;2.84;89.32;103627.97;4996428;28;20026;-72
2022/01/14 04:30:47;;;;;;;48.95;8.30;;;;;;;2.80;89.30;103626.78;4996294;28;20372;-71
2022/01/14 04:33:13;;;;;;;41.40;8.27;;;;;;;2.78;89.59;103624.78;4996416;28;20046;-72
2022/01/14 04:35:38;;;;;;;24.75;8.25;;;;;;;2.79;90.00;103624.94;4996351;28;20026;-70
2022/01/14 04:38:04;;;;;;;37.17;7.72;;;;;;;2.79;89.57;103635.41;4996466;28;20026;-70
2022/01/14 04:40:30;;;;;;;61.05;8.90;;;;;;;2.74;89.55;103637.59;4995691;28;20034;-71
2022/01/14 04:42:57;;;;;;;21.48;8.23;;;;;;;2.74;90.12;103631.44;4996308;28;20030;-71
2022/01/14 04:48:02;;;;;;;27.20;7.80;;;;;;;2.83;89.40;103619.22;4996415;28;20034;-71
2022/01/14 04:50:28;;;;;;;32.45;7.82;;;;;;;2.89;89.31;103611.00;4995795;28;20050;-71
2022/01/14 04:52:53;;;;;;;33.72;9.07;;;;;;;2.87;89.07;103613.47;4996146;28;20445;-72
2022/01/14 04:55:22;;;;;;;36.17;7.75;;;;;;;2.86;88.89;103606.41;4995759;28;20026;-71
2022/01/14 04:57:48;;;;;;;20.20;7.43;;;;;;;2.87;89.29;103600.41;4996015;28;20085;-71
2022/01/14 05:00:16;;;;;;;39.80;9.18;;;;;;;2.88;89.31;103591.78;4995672;28;20026;-70
2022/01/14 05:02:42;;;;;;;35.92;7.88;;;;;;;2.83;89.08;103584.38;4995863;28;20468;-71
2022/01/14 05:05:09;;;;;;;33.22;7.30;;;;;;;2.83;89.46;103582.66;4995834;28;20029;-70
2022/01/14 05:07:35;;;;;;;24.25;7.30;;;;;;;2.83;89.38;103580.03;4995775;28;20026;-71
2022/01/14 05:12:33;;;;;;;67.03;8.02;;;;;;;2.79;89.30;103580.56;4995683;28;20034;-71
2022/01/14 05:14:58;;;;;;;33.10;8.45;;;;;;;2.76;89.15;103575.97;4995251;28;20030;-72
2022/01/14 05:17:23;;;;;;;51.47;7.78;;;;;;;2.65;89.08;103587.19;4995588;28;20475;-72
2022/01/14 05:19:49;;;;;;;52.13;7.97;;;;;;;2.60;89.43;103577.13;4995437;28;20072;-71
2022/01/14 05:22:15;;;;;;;42.92;7.65;;;;;;;2.54;89.68;103580.13;4995415;28;20101;-72
2022/01/14 05:24:40;;;;;;;32.95;6.93;;;;;;;2.52;90.08;103573.84;4995317;28;20543;-71
2022/01/14 05:27:06;;;;;;;40.00;7.35;;;;;;;2.53;89.67;103569.53;4995257;28;20545;-70
2022/01/14 05:29:31;;;;;;;43.60;7.50;;;;;;;2.54;89.54;103582.75;4995237;28;20109;-72
2022/01/14 05:32:03;;;;;;;41.28;7.47;;;;;;;2.51;89.40;103580.75;4995290;28;20026;-71
2022/01/14 05:34:33;;;;;;;45.17;7.55;;;;;;;2.54;90.03;103576.63;4995223;28;20103;-72
2022/01/14 05:37:00;;;;;;;35.28;7.50;;;;;;;2.50;89.77;103580.66;4995145;28;20054;-71
2022/01/14 05:39:25;;;;;;;34.55;7.25;;;;;;;2.46;89.93;103587.28;4995098;28;20033;-71
2022/01/14 05:41:52;;;;;;;20.73;6.80;;;;;;;2.48;90.08;103585.75;4995011;28;20027;-71
2022/01/14 05:44:18;;;;;;;38.30;7.32;;;;;;;2.49;89.28;103584.94;4994853;28;20026;-71
2022/01/14 05:46:44;;;;;;;40.28;7.60;;;;;;;2.45;89.20;103569.81;4994942;28;20372;-72
2022/01/14 05:49:09;;;;;;;29.77;7.30;;;;;;;2.44;89.52;103575.81;4995196;28;20022;-71
2022/01/14 05:51:34;;;;;;;40.28;7.10;;;;;;;2.43;89.39;103570.44;4993900;28;20415;-72
2022/01/14 05:54:00;;;;;;;32.50;7.13;;;;;;;2.35;89.21;103566.25;4994817;28;20033;-71
2022/01/14 05:56:25;;;;;;;35.25;6.88;;;;;;;2.25;89.63;103570.66;4994702;28;20034;-71
2022/01/14 05:58:51;;;;;;;25.25;7.32;;;;;;;2.20;89.71;103571.94;4994612;28;20415;-71
2022/01/14 06:01:16;;;;;;;36.55;7.07;;;;;;;2.19;89.78;103569.22;4994636;28;20026;-72
2022/01/14 06:03:41;;;;;;;40.95;7.25;;;;;;;2.16;89.81;103568.94;4994796;28;20117;-71
2022/01/14 06:06:07;;;;;;;29.23;7.63;;;;;;;2.21;90.22;103559.81;4994535;28;20073;-70
2022/01/14 06:08:32;;;;;;;18.88;6.93;;;;;;;2.27;90.04;103568.19;4994748;28;20412;-71
2022/01/14 06:10:58;;;;;;;34.75;7.32;;;;;;;2.28;89.59;103571.72;4994479;28;20101;-71
2022/01/14 06:13:23;;;;;;;32.00;7.30;;;;;;;2.29;89.75;103579.66;4994470;28;20026;-70
2022/01/14 06:15:48;;;;;;;27.77;7.72;;;;;;;2.24;89.78;103575.75;4994262;28;20121;-71
2022/01/14 06:18:14;;;;;;;33.53;7.05;;;;;;;2.20;89.37;103586.69;4994404;28;20482;-70
2022/01/14 06:20:39;;;;;;;22.65;7.43;;;;;;;2.19;90.00;103593.59;4994240;28;20026;-72
2022/01/14 06:23:04;;;;;;;31.58;7.35;;;;;;;2.19;89.41;103590.09;4994449;28;20037;-71
2022/01/14 06:25:30;;;;;;;33.88;7.57;;;;;;;2.13;90.06;103594.75;4994166;28;20080;-71
2022/01/14 06:27:55;;;;;;;19.35;7.18;;;;;;;2.16;89.92;103590.72;4994495;28;20034;-71
2022/01/14 06:30:21;;;;;;;27.27;7.38;;;;;;;2.17;89.83;103584.72;4994190;28;20034;-72
2022/01/14 06:32:50;;;;;;;20.77;6.88;;;;;;;2.22;89.72;103580.81;4994342;28;20026;-71
2022/01/14 06:35:16;;;;;;;48.78;7.72;;;;;;;2.17;89.11;103578.59;4994132;28;20116;-71
2022/01/14 06:37:42;;;;;;;23.08;7.45;;;;;;;2.12;89.70;103578.19;4994294;28;20037;-72
2022/01/14 06:40:08;;;;;;;65.88;8.00;;;;;;;2.06;89.81;103584.56;4993947;28;20102;-72
2022/01/14 06:42:34;;;;;;;25.23;7.75;;;;;;;2.09;90.07;103584.81;4994035;28;20026;-72
2022/01/14 06:45:00;;;;;;;47.40;7.80;;;;;;;2.11;89.69;103578.97;4993991;28;20084;-71
2022/01/14 06:47:25;;;;;;;33.30;7.45;;;;;;;2.10;89.89;103577.16;4993792;28;20027;-72
2022/01/14 06:49:51;;;;;;;32.85;7.18;;;;;;;2.13;90.21;103574.78;4993666;28;20023;-71
2022/01/14 06:52:17;;;;;;;38.88;7.57;;;;;;;2.17;89.86;103568.16;4993868;28;20037;-71
2022/01/14 06:54:43;;;;;;;44.45;7.40;;;;;;;2.13;89.33;103572.19;4994134;28;20045;-70
2022/01/14 06:57:08;;;;;;;32.20;7.45;;;;;;;2.11;89.86;103586.78;4993646;28;20364;-71
2022/01/14 06:59:34;;;;;;;22.40;7.03;;;;;;;2.11;90.02;103571.13;4993786;28;20030;-71
2022/01/14 07:01:59;;;;;;;54.30;7.80;;;;;;;2.12;89.76;103574.66;4993562;28;20030;-72
2022/01/14 07:04:24;;;;;;;24.02;7.30;;;;;;;2.15;89.96;103575.84;4993610;28;20041;-72
2022/01/14 07:06:50;;;;;;;55.13;8.05;;;;;;;2.10;89.73;103573.59;4993631;28;20058;-73
2022/01/14 07:09:15;;;;;;;23.48;8.23;;;;;;;2.10;90.19;103586.63;4993718;28;20084;-72
2022/01/14 07:11:41;;;;;;;57.17;7.88;;;;;;;2.06;89.60;103587.16;4993578;28;20395;-71
2022/01/14 07:14:07;;;;;;;39.88;7.82;;;;;;;1.97;89.92;103575.13;4993744;28;20022;-71
2022/01/14 07:16:34;;;;;;;38.65;7.25;;;;;;;1.99;89.87;103585.69;4993632;28;20029;-76
2022/01/14 07:19:00;;;;;;;47.30;8.32;;;;;;;2.00;90.15;103578.00;4993402;28;20085;-72
2022/01/14 07:21:26;;;;;;;119.68;10.00;;;;;;;1.93;90.00;103582.53;4993766;28;20031;-73
2022/01/14 07:23:52;;;;;;;65.45;8.00;;;;;;;1.83;90.36;103586.00;4993609;28;20360;-71
2022/01/14 07:26:18;;;;;;;98.20;8.43;;;;;;;1.81;90.52;103591.88;4993496;28;20022;-72
2022/01/14 07:28:43;;;;;;;55.13;8.93;;;;;;;1.83;90.66;103591.22;4993628;28;20081;-73
2022/01/14 07:31:09;;;;;;;57.75;8.25;;;;;;;1.85;90.42;103601.78;4993504;28;20052;-72
2022/01/14 07:33:34;;;;;;;61.80;8.15;;;;;;;1.81;90.57;103599.69;4993298;28;20069;-73
2022/01/14 07:36:00;;;;;;;74.10;8.25;;;;;;;1.77;90.84;103589.75;4993500;28;20026;-71
2022/01/14 07:38:25;;;;;;;76.13;9.23;;;;;;;1.79;90.82;103590.81;4993478;28;20093;-71
2022/01/14 07:40:50;;;;;;;65.03;9.35;;;;;;;1.79;90.23;103607.34;4993084;28;20109;-72
2022/01/14 07:43:18;;;;;;;57.45;8.63;;;;;;;1.78;90.75;103607.22;4993329;28;20426;-73
2022/01/14 07:45:43;;;;;;;53.83;9.07;;;;;;;1.76;90.57;103596.66;4993324;28;20034;-72
2022/01/14 07:48:08;;;;;;;26.10;8.27;;;;;;;1.76;90.64;103599.28;4993247;28;20490;-73
2022/01/14 07:50:34;;;;;;;57.58;9.23;;;;;;;1.75;90.59;103611.38;4993179;28;20471;-71
2022/01/14 07:52:59;;;;;;;48.08;8.80;;;;;;;1.79;91.06;103599.53;4993512;28;20022;-72
2022/01/14 07:55:25;;;;;;;68.57;9.27;;;;;;;1.80;90.68;103584.81;4993170;28;20041;-71
2022/01/14 07:57:50;;;;;;;33.25;10.10;;;;;;;1.85;91.39;103597.50;4993390;28;20038;-73
2022/01/14 08:00:16;;;;;;;46.90;10.45;;;;;;;1.92;91.25;103607.69;4993100;28;20518;-72
2022/01/14 08:02:41;;;;;;;32.30;9.57;;;;;;;2.04;90.89;103609.56;4993234;28;20022;-71
2022/01/14 08:05:07;;;;;;;34.38;9.00;;;;;;;2.12;90.54;103596.44;4992942;28;20512;-73
2022/01/14 08:07:44;;;;;;;27.98;8.98;;;;;;;2.13;89.76;103598.25;4993104;28;20054;-71
2022/01/14 08:10:09;;;;;;;42.53;9.50;;;;;;;2.14;89.74;103593.94;4993040;28;20041;-71
2022/01/14 08:12:36;;;;;;;73.20;10.05;;;;;;;2.06;89.54;103581.94;4992987;28;20034;-72
2022/01/14 08:15:01;;;;;;;100.35;11.43;;;;;;;1.90;90.19;103585.78;4993537;28;20471;-72
2022/01/14 08:17:27;;;;;;;77.20;10.18;;;;;;;1.83;90.90;103577.25;4996514;28;20049;-72
2022/01/14 08:19:52;;;;;;;101.03;9.98;;;;;;;1.80;90.55;103564.88;4996460;28;20034;-71
2022/01/14 08:22:18;;;;;;;63.83;10.40;;;;;;;1.77;90.94;103579.34;4996953;28;20058;-71
2022/01/14 08:24:43;;;;;;;52.60;10.50;;;;;;;1.77;91.36;103589.75;4996612;28;20034;-72
2022/01/14 08:27:08;;;;;;;70.55;10.82;;;;;;;1.80;91.31;103584.81;4978904;28;20029;-71
2022/01/14 08:29:34;;;;;;;60.40;10.48;;;;;;;1.79;91.08;103589.09;4996529;28;20391;-72
2022/01/14 08:32:00;;;;;;;50.80;9.73;;;;;;;1.75;90.97;103592.22;4996393;28;20034;-73
2022/01/14 08:34:27;;;;;;;63.67;10.43;;;;;;;1.79;91.80;103601.22;4996260;28;20455;-72
2022/01/14 08:36:53;;;;;;;61.45;10.57;;;;;;;1.79;91.42;103586.50;4996264;28;20029;-74
2022/01/14 08:39:19;;;;;;;42.20;11.68;;;;;;;1.92;91.89;103605.06;4996223;28;20395;-71
2022/01/14 08:41:45;;;;;;;28.48;10.88;;;;;;;2.04;91.69;103591.31;4996068;28;20364;-72
2022/01/14 08:44:14;;;;;;;27.50;10.35;;;;;;;2.13;91.76;103603.47;4996444;28;20084;-72
2022/01/14 08:46:40;;;;;;;35.08;10.80;;;;;;;2.24;91.14;103601.84;4996122;28;20030;-73
2022/01/14 08:49:06;;;;;;;39.97;11.25;;;;;;;2.35;90.82;103610.59;4996002;28;20058;-72
2022/01/14 08:51:32;;;;;;;49.88;10.10;;;;;;;2.39;89.99;103584.91;4995860;28;20084;-73
2022/01/14 08:54:02;;;;;;;35.00;10.70;;;;;;;2.45;90.37;103598.50;4995914;28;20026;-71
2022/01/14 08:56:28;;;;;;;43.92;10.85;;;;;;;2.48;89.87;103590.00;4995847;28;20469;-71
2022/01/14 08:58:54;;;;;;;27.35;10.30;;;;;;;2.51;90.06;103583.38;4996004;28;20034;-72
2022/01/14 09:01:19;;;;;;;27.42;10.73;;;;;;;2.55;90.04;103578.44;4995937;28;20101;-74
2022/01/14 09:03:44;;;;;;;40.05;9.88;;;;;;;2.58;89.88;103577.00;4995772;28;20092;-73
2022/01/14 09:06:10;;;;;;;25.55;10.30;;;;;;;2.60;89.88;103595.41;4995868;28;20038;-74
2022/01/14 09:08:35;;;;;;;22.98;10.13;;;;;;;2.67;89.68;103590.84;4995857;28;20030;-73
2022/01/14 09:11:01;;;;;;;39.00;10.60;;;;;;;2.68;89.55;103600.50;4995574;28;20030;-73
2022/01/14 09:13:26;;;;;;;30.33;10.18;;;;;;;2.71;89.55;103592.94;4995662;28;20035;-73
2022/01/14 09:15:51;;;;;;;32.95;9.23;;;;;;;2.78;89.75;103591.75;4995699;28;20030;-73
2022/01/14 09:18:17;;;;;;;53.65;10.93;;;;;;;2.76;89.01;103572.47;4995663;28;20121;-73
2022/01/14 09:20:42;;;;;;;34.45;10.95;;;;;;;2.72;89.48;103584.31;4995282;28;20124;-73
2022/01/14 09:23:13;;;;;;;40.50;9.95;;;;;;;2.73;89.33;103595.69;4995664;28;20498;-72
2022/01/14 09:25:38;;;;;;;16.85;8.70;;;;;;;2.79;90.06;103588.41;4995601;28;20109;-72
2022/01/14 09:28:04;;;;;;;37.60;10.57;;;;;;;2.84;89.72;103583.56;4994429;28;20098;-73
2022/01/14 09:30:29;;;;;;;66.55;10.20;;;;;;;2.88;89.30;103583.97;4995300;28;20121;-74
2022/01/14 09:32:55;;;;;;;26.88;10.43;;;;;;;2.89;89.16;103584.88;4979454;28;20464;-74
2022/01/14 09:35:20;;;;;;;49.33;9.77;;;;;;;2.88;89.75;103591.78;4975358;28;20166;-73
2022/01/14 09:37:45;;;;;;;37.35;10.18;;;;;;;2.88;89.27;103602.25;4975720;28;20030;-73
2022/01/14 09:40:14;;;;;;;36.08;10.00;;;;;;;2.89;89.81;103600.53;4975534;28;20042;-74
2022/01/14 09:42:40;;;;;;;34.90;10.85;;;;;;;2.88;89.73;103610.06;4958220;28;20451;-73
2022/01/14 09:45:06;;;;;;;51.35;11.32;;;;;;;2.87;89.37;103608.25;4976187;28;20086;-74
2022/01/14 09:47:31;;;;;;;44.28;10.48;;;;;;;2.80;89.88;103590.22;4975704;28;20026;-73
2022/01/14 09:49:56;;;;;;;24.85;10.77;;;;;;;2.92;89.61;103619.09;4975467;28;20023;-73
2022/01/14 09:52:22;;;;;;;35.78;11.13;;;;;;;3.00;89.88;103629.41;4975275;28;20358;-73
2022/01/14 09:54:50;;;;;;;25.75;11.15;;;;;;;3.06;89.70;103615.97;4975502;28;20050;-74
2022/01/14 09:57:16;;;;;;;36.72;11.55;;;;;;;3.16;90.06;103621.19;4990613;28;20030;-73
2022/01/14 09:59:42;;;;;;;29.35;11.73;;;;;;;3.22;89.41;103616.50;4994752;28;20027;-73
2022/01/14 10:02:07;;;;;;;24.25;11.10;;;;;;;3.24;89.03;103619.22;4994791;28;20056;-72
2022/01/14 10:04:33;;;;;;;35.13;12.25;;;;;;;3.24;88.89;103619.22;4994767;28;20031;-72
2022/01/14 10:07:00;;;;;;;43.88;11.30;;;;;;;3.26;89.37;103621.19;4994662;28;20395;-73
2022/01/14 10:09:40;;;;;;;21.85;11.45;;;;;;;3.34;89.55;103626.13;4994615;28;20538;-73
2022/01/14 10:12:13;;;;;;;26.13;10.85;;;;;;;3.38;88.82;103626.53;4994319;28;20026;-73
2022/01/14 10:14:40;;;;;;;29.00;11.45;;;;;;;3.42;88.49;103636.44;4994596;28;20394;-73
2022/01/14 10:17:09;;;;;;;24.90;11.25;;;;;;;3.50;88.78;103624.94;4994412;28;20033;-73
2022/01/14 10:19:38;;;;;;;41.05;11.10;;;;;;;3.51;88.74;103623.25;4994224;28;20487;-73
2022/01/14 10:22:24;;;;;;;24.05;11.43;;;;;;;3.53;88.74;103621.69;4994571;28;20061;-73
2022/01/14 10:24:53;;;;;;;23.35;11.15;;;;;;;3.55;88.67;103619.19;4994334;28;20054;-74
2022/01/14 10:27:30;;;;;;;22.17;11.40;;;;;;;3.55;88.46;103616.56;4994372;28;20053;-73
2022/01/14 10:30:12;;;;;;;31.30;11.35;;;;;;;3.58;88.17;103620.38;4994226;28;20053;-73
2022/01/14 10:32:38;;;;;;;28.27;11.55;;;;;;;3.60;87.88;103618.81;4994212;28;20105;-73
2022/01/14 10:35:09;;;;;;;24.48;11.32;;;;;;;3.62;88.35;103618.94;4994146;28;20022;-74
2022/01/14 10:37:35;;;;;;;21.65;12.13;;;;;;;3.67;88.89;103618.50;4993826;28;20096;-74
2022/01/14 10:40:11;;;;;;;30.00;11.95;;;;;;;3.72;88.54;103609.34;4993972;28;20476;-74
2022/01/14 10:42:36;;;;;;;30.00;11.80;;;;;;;3.71;88.24;103612.75;4993827;28;20041;-73
2022/01/14 10:45:23;;;;;;;25.83;12.65;;;;;;;3.69;88.22;103616.06;4993928;28;20034;-74
2022/01/14 10:47:57;;;;;;;23.15;12.50;;;;;;;3.59;88.30;103610.81;4994265;28;20030;-74
2022/01/14 10:50:32;;;;;;;22.50;12.00;;;;;;;3.53;88.51;103615.56;4993862;28;20051;-73
2022/01/14 10:52:58;;;;;;;25.15;12.30;;;;;;;3.50;89.41;103616.19;4994132;28;20043;-74
2022/01/14 10:55:30;;;;;;;26.88;12.63;;;;;;;3.49;88.62;103612.66;4993824;28;20060;-73
2022/01/14 10:57:55;;;;;;;20.73;11.93;;;;;;;3.55;89.27;103601.81;4993942;28;20029;-74
2022/01/14 11:00:22;;;;;;;22.08;11.77;;;;;;;3.63;89.01;103599.84;4993792;28;20297;-73
2022/01/14 11:02:50;;;;;;;23.08;12.60;;;;;;;3.67;89.06;103607.16;4993773;28;20042;-73
2022/01/14 11:05:21;;;;;;;27.55;12.95;;;;;;;3.72;88.80;103595.34;4994220;28;20023;-73
2022/01/14 11:07:48;;;;;;;22.30;12.73;;;;;;;3.74;88.54;103597.31;4993657;28;20037;-75
2022/01/14 11:10:23;;;;;;;25.73;13.55;;;;;;;3.69;88.58;103589.91;4976682;28;20061;-71
2022/01/14 11:12:50;;;;;;;27.67;13.80;;;;;;;3.63;88.22;103587.66;4993863;28;20034;-70
2022/01/14 11:15:16;;;;;;;30.00;13.52;;;;;;;3.57;89.40;103592.41;4993986;28;20078;-70
2022/01/14 11:17:46;;;;;;;24.70;13.80;;;;;;;3.59;89.51;103589.91;4994069;28;20063;-70
2022/01/14 11:20:12;;;;;;;22.60;13.10;;;;;;;3.61;88.71;103581.41;4993843;28;20034;-77
2022/01/14 11:25:22;;;;;;;25.73;14.13;;;;;;;3.49;89.65;103581.31;4993759;28;20093;-74
2022/01/14 11:27:52;;;;;;;24.90;13.20;;;;;;;3.51;89.77;103581.41;4997867;28;20022;-74
2022/01/14 11:30:18;;;;;;;22.35;13.35;;;;;;;3.54;89.69;103584.28;5000755;28;20026;-75
2022/01/14 11:32:56;;;;;;;27.17;14.60;;;;;;;3.58;89.91;103582.84;5000540;28;20052;-73
2022/01/14 11:35:24;;;;;;;29.73;14.90;;;;;;;3.56;90.41;103585.34;4996283;28;20022;-71
2022/01/14 11:37:50;;;;;;;25.35;14.20;;;;;;;3.65;90.37;103587.81;4993713;28;20073;-72
2022/01/14 11:40:16;;;;;;;30.23;14.25;;;;;;;3.73;90.78;103578.91;4993350;28;20475;-73
2022/01/14 11:42:46;;;;;;;24.48;13.13;;;;;;;3.82;91.07;103574.44;4993672;28;20030;-73
2022/01/14 11:45:16;;;;;;;27.73;14.30;;;;;;;3.88;90.16;103577.53;4993842;28;20499;-77
2022/01/14 11:47:46;;;;;;;23.92;13.25;;;;;;;3.96;89.39;103572.94;4993465;28;20026;-73
2022/01/14 11:50:21;;;;;;;24.52;13.32;;;;;;;3.98;90.19;103587.97;4994369;28;20051;-76
2022/01/14 11:52:49;;;;;;;26.15;13.82;;;;;;;4.05;89.73;103576.28;4998633;28;20042;-74
2022/01/14 11:55:23;;;;;;;30.38;14.48;;;;;;;4.11;89.22;103581.09;4997193;28;20161;-77